createdAt,value
2019-03-12T00:00:24.202Z,79.87
2019-03-12T00:01:24.187Z,80.15
2019-03-12T00:02:24.167Z,79.87
2019-03-12T00:03:24.161Z,80.34
2019-03-12T00:04:24.127Z,80.15
2019-03-12T00:05:24.125Z,80.06
2019-03-12T00:06:24.090Z,80.44
2019-03-12T00:07:24.070Z,80.25
2019-03-12T00:08:24.048Z,80.34
2019-03-12T00:09:24.025Z,80.34
2019-03-12T00:10:24.374Z,80.44
2019-03-12T00:11:23.985Z,80.58
2019-03-12T00:12:24.013Z,80.21
2019-03-12T00:13:23.949Z,80.53
2019-03-12T00:14:23.927Z,80.82
2019-03-12T00:15:23.905Z,80.58
2019-03-12T00:16:23.903Z,80.68
2019-03-12T00:17:23.870Z,80.68
2019-03-12T00:18:23.850Z,80.21
2019-03-12T00:19:23.828Z,80.87
2019-03-12T00:20:23.807Z,80.68
2019-03-12T00:21:23.791Z,80.77
2019-03-12T00:22:23.769Z,80.87
2019-03-12T00:23:23.742Z,80.87
2019-03-12T00:24:23.726Z,80.68
2019-03-12T00:25:23.720Z,80.68
2019-03-12T00:26:23.811Z,80.49
2019-03-12T00:27:23.714Z,80.68
2019-03-12T00:28:23.641Z,80.58
2019-03-12T00:29:23.705Z,80.77
2019-03-12T00:30:23.608Z,80.40
2019-03-12T00:31:23.583Z,80.49
2019-03-12T00:32:23.559Z,80.49
2019-03-12T00:33:23.546Z,80.58
2019-03-12T00:34:23.532Z,80.58
2019-03-12T00:35:23.503Z,80.68
2019-03-12T00:36:23.478Z,80.49
2019-03-12T00:37:23.464Z,81.06
2019-03-12T00:38:23.442Z,81.12
2019-03-12T00:39:23.419Z,81.02
2019-03-12T00:40:23.414Z,81.21
2019-03-12T00:41:23.378Z,80.64
2019-03-12T00:42:23.363Z,81.12
2019-03-12T00:43:23.339Z,81.30
2019-03-12T00:44:23.329Z,80.83
2019-03-12T00:45:23.306Z,81.02
2019-03-12T00:46:23.303Z,81.12
2019-03-12T00:47:23.265Z,80.93
2019-03-12T00:48:23.240Z,81.30
2019-03-12T00:49:23.240Z,81.30
2019-03-12T00:50:23.200Z,81.49
2019-03-12T00:51:23.179Z,81.30
2019-03-12T00:52:23.162Z,81.59
2019-03-12T00:53:23.137Z,81.49
2019-03-12T00:54:23.116Z,81.68
2019-03-12T00:55:23.135Z,81.49
2019-03-12T00:56:23.084Z,81.87
2019-03-12T00:57:23.061Z,81.87
2019-03-12T00:58:23.043Z,81.96
2019-03-12T00:59:23.012Z,81.68
2019-03-12T01:00:23.004Z,81.87
2019-03-12T01:01:22.981Z,81.77
2019-03-12T01:02:22.952Z,81.49
2019-03-12T01:03:22.939Z,81.77
2019-03-12T01:04:22.909Z,81.77
2019-03-12T01:05:22.892Z,81.68
2019-03-12T01:06:22.902Z,81.77
2019-03-12T01:07:22.856Z,81.59
2019-03-12T01:08:22.838Z,81.77
2019-03-12T01:09:22.815Z,81.68
2019-03-12T01:10:22.792Z,81.64
2019-03-12T01:11:22.770Z,81.68
2019-03-12T01:12:22.751Z,81.45
2019-03-12T01:13:22.730Z,81.93
2019-03-12T01:14:22.724Z,81.83
2019-03-12T01:15:22.700Z,81.74
2019-03-12T01:16:22.680Z,82.21
2019-03-12T01:17:22.644Z,81.93
2019-03-12T01:18:22.630Z,81.74
2019-03-12T01:19:22.612Z,81.64
2019-03-12T01:20:22.591Z,81.83
2019-03-12T01:21:22.563Z,82.21
2019-03-12T01:22:22.547Z,82.50
2019-03-12T01:23:22.553Z,82.31
2019-03-12T01:24:22.502Z,82.59
2019-03-12T01:25:22.482Z,82.50
2019-03-12T01:26:22.463Z,82.50
2019-03-12T01:27:22.447Z,82.50
2019-03-12T01:28:22.435Z,82.31
2019-03-12T01:29:22.407Z,82.40
2019-03-12T01:30:22.379Z,82.78
2019-03-12T01:31:22.361Z,82.59
2019-03-12T01:32:22.339Z,82.59
2019-03-12T01:33:22.315Z,82.59
2019-03-12T01:34:22.298Z,82.59
2019-03-12T01:35:22.279Z,82.50
2019-03-12T01:36:22.270Z,82.68
2019-03-12T01:37:22.236Z,82.40
2019-03-12T01:38:22.212Z,82.21
2019-03-12T01:39:22.218Z,82.44
2019-03-12T01:40:22.175Z,82.53
2019-03-12T01:41:22.153Z,82.34
2019-03-12T01:42:22.133Z,82.63
2019-03-12T01:43:22.137Z,82.34
2019-03-12T01:44:22.084Z,82.63
2019-03-12T01:45:22.067Z,81.96
2019-03-12T01:46:22.051Z,81.77
2019-03-12T01:47:22.038Z,81.96
2019-03-12T01:48:22.005Z,82.06
2019-03-12T01:49:21.980Z,81.68
2019-03-12T01:50:21.964Z,81.68
2019-03-12T01:51:21.946Z,81.77
2019-03-12T01:52:21.933Z,81.68
2019-03-12T01:53:21.907Z,81.68
2019-03-12T01:54:21.888Z,81.49
2019-03-12T01:55:21.859Z,81.68
2019-03-12T01:56:21.845Z,81.96
2019-03-12T01:57:21.826Z,81.96
2019-03-12T01:58:21.802Z,81.77
2019-03-12T01:59:21.784Z,81.92
2019-03-12T02:00:21.761Z,81.92
2019-03-12T02:01:21.742Z,81.44
2019-03-12T02:02:21.724Z,81.34
2019-03-12T02:03:21.697Z,81.63
2019-03-12T02:04:21.687Z,81.72
2019-03-12T02:05:21.670Z,81.72
2019-03-12T02:06:21.640Z,81.34
2019-03-12T02:07:21.625Z,81.34
2019-03-12T02:08:21.614Z,80.96
2019-03-12T02:09:21.575Z,81.06
2019-03-12T02:10:21.562Z,81.06
2019-03-12T02:11:21.540Z,81.06
2019-03-12T02:12:21.513Z,81.06
2019-03-12T02:13:21.507Z,81.06
2019-03-12T02:14:21.480Z,81.15
2019-03-12T02:15:21.456Z,81.06
2019-03-12T02:16:21.435Z,81.06
2019-03-12T02:17:21.427Z,81.25
2019-03-12T02:18:21.397Z,81.06
2019-03-12T02:19:21.376Z,81.25
2019-03-12T02:20:21.358Z,81.06
2019-03-12T02:21:21.336Z,81.06
2019-03-12T02:22:21.326Z,81.06
2019-03-12T02:23:21.297Z,81.06
2019-03-12T02:24:21.279Z,81.06
2019-03-12T02:25:21.258Z,81.15
2019-03-12T02:26:21.238Z,81.15
2019-03-12T02:27:21.218Z,81.15
2019-03-12T02:28:21.199Z,81.15
2019-03-12T02:29:21.178Z,81.15
2019-03-12T02:30:21.160Z,81.15
2019-03-12T02:31:21.137Z,81.06
2019-03-12T02:32:21.167Z,81.15
2019-03-12T02:33:21.109Z,81.15
2019-03-12T02:34:21.071Z,81.06
2019-03-12T02:35:21.064Z,80.87
2019-03-12T02:36:21.033Z,80.87
2019-03-12T02:37:21.032Z,80.87
2019-03-12T02:38:20.995Z,81.06
2019-03-12T02:39:20.973Z,80.96
2019-03-12T02:40:20.950Z,80.87
2019-03-12T02:41:20.942Z,81.15
2019-03-12T02:42:20.915Z,80.87
2019-03-12T02:43:20.895Z,81.06
2019-03-12T02:44:20.878Z,81.06
2019-03-12T02:45:20.855Z,81.06
2019-03-12T02:46:20.830Z,81.06
2019-03-12T02:47:20.813Z,81.06
2019-03-12T02:48:20.789Z,81.06
2019-03-12T02:49:20.777Z,81.06
2019-03-12T02:50:20.758Z,80.96
2019-03-12T02:51:20.747Z,81.06
2019-03-12T02:52:20.709Z,80.96
2019-03-12T02:53:20.851Z,81.06
2019-03-12T02:54:20.677Z,80.96
2019-03-12T02:55:20.660Z,81.15
2019-03-12T02:56:20.623Z,81.15
2019-03-12T02:57:20.616Z,81.15
2019-03-12T02:58:20.594Z,81.15
2019-03-12T02:59:20.565Z,81.06
2019-03-12T03:00:20.548Z,81.15
2019-03-12T03:01:20.529Z,81.15
2019-03-12T03:02:20.503Z,81.06
2019-03-12T03:03:20.490Z,81.21
2019-03-12T03:04:20.465Z,81.15
2019-03-12T03:05:20.454Z,80.96
2019-03-12T03:06:20.472Z,81.06
2019-03-12T03:07:20.405Z,81.25
2019-03-12T03:08:20.421Z,81.34
2019-03-12T03:09:20.375Z,81.53
2019-03-12T03:10:20.363Z,81.34
2019-03-12T03:11:20.420Z,81.34
2019-03-12T03:12:20.302Z,81.34
2019-03-12T03:13:20.313Z,81.15
2019-03-12T03:14:20.287Z,81.34
2019-03-12T03:15:20.245Z,81.25
2019-03-12T03:16:23.840Z,80.87
2019-03-12T03:17:20.223Z,80.96
2019-03-12T03:18:20.195Z,80.58
2019-03-12T03:19:20.159Z,80.49
2019-03-12T03:20:20.147Z,80.49
2019-03-12T03:21:20.134Z,80.68
2019-03-12T03:22:20.128Z,80.68
2019-03-12T03:23:20.083Z,80.21
2019-03-12T03:24:20.062Z,80.40
2019-03-12T03:25:20.045Z,80.30
2019-03-12T03:26:20.237Z,80.11
2019-03-12T03:27:20.012Z,80.02
2019-03-12T03:28:19.991Z,80.40
2019-03-12T03:29:19.977Z,80.11
2019-03-12T03:30:19.961Z,80.02
2019-03-12T03:31:19.966Z,80.21
2019-03-12T03:32:19.914Z,79.83
2019-03-12T03:33:19.877Z,79.93
2019-03-12T03:34:27.023Z,79.74
2019-03-12T03:35:19.860Z,79.93
2019-03-12T03:36:19.843Z,79.83
2019-03-12T03:37:19.798Z,79.74
2019-03-12T03:38:19.779Z,79.74
2019-03-12T03:39:19.763Z,79.83
2019-03-12T03:40:19.771Z,79.74
2019-03-12T03:41:19.722Z,79.55
2019-03-12T03:42:19.714Z,79.74
2019-03-12T03:43:19.691Z,80.02
2019-03-12T03:44:19.664Z,79.83
2019-03-12T03:45:19.648Z,80.30
2019-03-12T03:46:19.615Z,80.21
2019-03-12T03:47:20.070Z,80.49
2019-03-12T03:48:19.599Z,80.11
2019-03-12T03:49:19.554Z,80.49
2019-03-12T03:50:19.553Z,80.55
2019-03-12T03:51:19.511Z,80.45
2019-03-12T03:52:19.502Z,80.55
2019-03-12T03:53:19.477Z,80.45
2019-03-12T03:54:19.475Z,80.64
2019-03-12T03:55:19.435Z,80.36
2019-03-12T03:56:19.431Z,80.64
2019-03-12T03:57:19.401Z,80.74
2019-03-12T03:58:19.407Z,80.83
2019-03-12T03:59:19.357Z,80.55
2019-03-12T04:00:19.343Z,81.02
2019-03-12T04:01:19.314Z,80.64
2019-03-12T04:02:19.294Z,81.02
2019-03-12T04:03:19.278Z,81.02
2019-03-12T04:04:19.334Z,80.83
2019-03-12T04:05:19.248Z,81.02
2019-03-12T04:06:19.210Z,81.12
2019-03-12T04:07:19.187Z,81.12
2019-03-12T04:08:19.168Z,81.02
2019-03-12T04:09:19.142Z,80.93
2019-03-12T04:10:19.133Z,81.02
2019-03-12T04:11:19.109Z,81.40
2019-03-12T04:12:19.091Z,81.40
2019-03-12T04:13:19.072Z,81.30
2019-03-12T04:14:19.056Z,81.12
2019-03-12T04:15:19.047Z,81.68
2019-03-12T04:16:19.018Z,81.68
2019-03-12T04:17:18.977Z,81.40
2019-03-12T04:18:18.972Z,81.45
2019-03-12T04:19:18.938Z,81.59
2019-03-12T04:20:18.914Z,81.55
2019-03-12T04:21:18.919Z,81.26
2019-03-12T04:22:18.910Z,81.45
2019-03-12T04:23:18.891Z,81.93
2019-03-12T04:24:18.834Z,81.74
2019-03-12T04:25:18.994Z,81.83
2019-03-12T04:26:18.790Z,81.45
2019-03-12T04:27:18.775Z,81.64
2019-03-12T04:28:18.753Z,81.55
2019-03-12T04:29:18.727Z,81.64
2019-03-12T04:30:18.711Z,81.55
2019-03-12T04:31:18.686Z,81.55
2019-03-12T04:32:18.675Z,81.64
2019-03-12T04:33:18.650Z,81.74
2019-03-12T04:34:18.636Z,81.74
2019-03-12T04:35:18.615Z,81.74
2019-03-12T04:36:18.587Z,81.74
2019-03-12T04:37:18.567Z,81.74
2019-03-12T04:38:18.560Z,81.93
2019-03-12T04:39:18.528Z,81.74
2019-03-12T04:40:18.507Z,81.74
2019-03-12T04:41:18.477Z,81.64
2019-03-12T04:42:18.466Z,81.64
2019-03-12T04:43:18.459Z,81.93
2019-03-12T04:44:18.418Z,81.64
2019-03-12T04:45:18.407Z,81.64
2019-03-12T04:46:18.380Z,81.93
2019-03-12T04:47:18.349Z,81.93
2019-03-12T04:48:18.335Z,81.74
2019-03-12T04:49:18.315Z,82.02
2019-03-12T04:50:18.299Z,82.02
2019-03-12T04:51:18.273Z,81.83
2019-03-12T04:52:18.273Z,81.83
2019-03-12T04:53:18.273Z,82.12
2019-03-12T04:54:18.213Z,81.93
2019-03-12T04:55:18.187Z,81.93
2019-03-12T04:56:18.171Z,81.93
2019-03-12T04:57:18.150Z,81.93
2019-03-12T04:58:18.125Z,81.74
2019-03-12T04:59:18.105Z,81.93
2019-03-12T05:00:18.085Z,81.64
2019-03-12T05:01:18.055Z,82.40
2019-03-12T05:02:18.036Z,82.59
2019-03-12T05:03:18.021Z,82.40
2019-03-12T05:04:18.005Z,82.31
2019-03-12T05:05:17.979Z,82.50
2019-03-12T05:06:19.769Z,82.59
2019-03-12T05:07:17.935Z,82.50
2019-03-12T05:08:17.914Z,82.50
2019-03-12T05:09:17.896Z,82.21
2019-03-12T05:10:17.891Z,82.21
2019-03-12T05:11:17.859Z,82.31
2019-03-12T05:12:17.825Z,82.40
2019-03-12T05:13:17.807Z,82.12
2019-03-12T05:14:17.789Z,82.50
2019-03-12T05:15:17.858Z,82.59
2019-03-12T05:16:17.746Z,82.59
2019-03-12T05:17:17.726Z,82.78
2019-03-12T05:18:17.705Z,82.59
2019-03-12T05:19:17.709Z,82.68
2019-03-12T05:20:17.657Z,82.40
2019-03-12T05:21:17.649Z,82.97
2019-03-12T05:22:17.622Z,82.59
2019-03-12T05:23:17.595Z,83.06
2019-03-12T05:24:17.584Z,82.97
2019-03-12T05:25:17.557Z,82.97
2019-03-12T05:26:17.536Z,82.68
2019-03-12T05:27:17.507Z,82.68
2019-03-12T05:28:17.497Z,82.68
2019-03-12T05:29:17.475Z,83.15
2019-03-12T05:30:17.451Z,83.06
2019-03-12T05:31:17.425Z,83.15
2019-03-12T05:32:17.402Z,83.06
2019-03-12T05:33:17.389Z,82.97
2019-03-12T05:34:17.366Z,83.15
2019-03-12T05:35:17.350Z,83.06
2019-03-12T05:36:17.324Z,83.15
2019-03-12T05:37:17.303Z,83.25
2019-03-12T05:38:17.281Z,83.15
2019-03-12T05:39:17.538Z,83.06
2019-03-12T05:40:17.237Z,83.72
2019-03-12T05:41:17.220Z,83.72
2019-03-12T05:42:17.205Z,83.63
2019-03-12T05:43:17.174Z,83.91
2019-03-12T05:44:17.157Z,83.53
2019-03-12T05:45:17.129Z,83.82
2019-03-12T05:46:17.115Z,83.63
2019-03-12T05:47:17.091Z,83.72
2019-03-12T05:48:17.072Z,83.72
2019-03-12T05:49:17.071Z,83.72
2019-03-12T05:50:17.027Z,83.63
2019-03-12T05:51:17.004Z,83.63
2019-03-12T05:52:17.000Z,83.91
2019-03-12T05:53:16.964Z,83.53
2019-03-12T05:54:16.959Z,83.44
2019-03-12T05:55:16.929Z,83.63
2019-03-12T05:56:16.901Z,83.82
2019-03-12T05:57:16.882Z,83.72
2019-03-12T05:58:16.860Z,84.10
2019-03-12T05:59:16.838Z,84.01
2019-03-12T06:00:16.827Z,83.63
2019-03-12T06:01:16.799Z,84.10
2019-03-12T06:02:16.778Z,83.91
2019-03-12T06:03:16.752Z,84.39
2019-03-12T06:04:16.785Z,84.39
2019-03-12T06:05:16.711Z,84.48
2019-03-12T06:06:16.692Z,83.91
2019-03-12T06:07:16.676Z,83.91
2019-03-12T06:08:16.660Z,84.10
2019-03-12T06:09:29.409Z,83.91
2019-03-12T06:10:16.608Z,84.10
2019-03-12T06:11:16.585Z,84.01
2019-03-12T06:12:16.579Z,83.91
2019-03-12T06:13:16.546Z,84.39
2019-03-12T06:14:16.529Z,84.48
2019-03-12T06:15:16.503Z,84.39
2019-03-12T06:16:16.487Z,84.48
2019-03-12T06:17:16.457Z,84.39
2019-03-12T06:18:16.436Z,84.29
2019-03-12T06:19:16.419Z,84.48
2019-03-12T06:20:16.402Z,84.52
2019-03-12T06:21:16.374Z,84.42
2019-03-12T06:22:16.378Z,83.95
2019-03-12T06:23:16.332Z,83.95
2019-03-12T06:24:16.312Z,84.14
2019-03-12T06:25:16.293Z,84.14
2019-03-12T06:26:16.281Z,83.86
2019-03-12T06:27:18.225Z,83.76
2019-03-12T06:28:16.229Z,84.14
2019-03-12T06:29:16.213Z,83.86
2019-03-12T06:30:16.191Z,83.86
2019-03-12T06:31:16.166Z,83.86
2019-03-12T06:32:16.144Z,84.14
2019-03-12T06:33:16.125Z,83.67
2019-03-12T06:34:16.129Z,83.95
2019-03-12T06:35:16.099Z,84.14
2019-03-12T06:36:16.066Z,83.86
2019-03-12T06:37:16.041Z,83.76
2019-03-12T06:38:16.021Z,83.86
2019-03-12T06:39:16.013Z,83.86
2019-03-12T06:40:15.986Z,83.95
2019-03-12T06:41:15.972Z,84.05
2019-03-12T06:42:15.941Z,83.86
2019-03-12T06:43:16.009Z,83.67
2019-03-12T06:44:15.896Z,83.48
2019-03-12T06:45:15.878Z,83.48
2019-03-12T06:46:15.857Z,83.48
2019-03-12T06:47:15.835Z,83.58
2019-03-12T06:48:15.811Z,83.48
2019-03-12T06:49:15.790Z,83.67
2019-03-12T06:50:15.793Z,83.67
2019-03-12T06:51:15.755Z,83.58
2019-03-12T06:52:15.733Z,83.58
2019-03-12T06:53:15.715Z,83.67
2019-03-12T06:54:15.696Z,83.67
2019-03-12T06:55:15.668Z,83.67
2019-03-12T06:56:15.651Z,83.39
2019-03-12T06:57:15.626Z,83.67
2019-03-12T06:58:15.621Z,83.67
2019-03-12T06:59:15.591Z,83.67
2019-03-12T07:00:15.573Z,83.58
2019-03-12T07:01:15.548Z,83.67
2019-03-12T07:02:15.533Z,83.76
2019-03-12T07:03:15.501Z,83.76
2019-03-12T07:04:15.482Z,83.76
2019-03-12T07:05:15.471Z,83.67
2019-03-12T07:06:15.449Z,83.67
2019-03-12T07:07:17.157Z,83.67
2019-03-12T07:08:15.405Z,83.95
2019-03-12T07:09:15.387Z,84.09
2019-03-12T07:10:15.363Z,84.00
2019-03-12T07:11:15.345Z,84.09
2019-03-12T07:12:15.325Z,84.00
2019-03-12T07:13:15.307Z,83.90
2019-03-12T07:14:15.286Z,84.00
2019-03-12T07:15:15.262Z,83.71
2019-03-12T07:16:15.246Z,83.90
2019-03-12T07:17:15.225Z,83.71
2019-03-12T07:18:15.207Z,83.14
2019-03-12T07:19:15.183Z,83.33
2019-03-12T07:20:15.162Z,83.33
2019-03-12T07:21:15.145Z,83.14
2019-03-12T07:22:15.122Z,83.24
2019-03-12T07:23:15.098Z,83.09
2019-03-12T07:24:15.086Z,83.09
2019-03-12T07:25:15.071Z,82.71
2019-03-12T07:26:15.042Z,83.00
2019-03-12T07:27:15.022Z,83.00
2019-03-12T07:28:15.017Z,82.90
2019-03-12T07:29:14.986Z,82.05
2019-03-12T07:30:14.960Z,82.43
2019-03-12T07:31:14.974Z,82.62
2019-03-12T07:32:14.922Z,82.43
2019-03-12T07:33:14.904Z,81.95
2019-03-12T07:34:18.087Z,81.86
2019-03-12T07:35:14.863Z,81.86
2019-03-12T07:36:14.856Z,81.76
2019-03-12T07:37:14.826Z,81.86
2019-03-12T07:38:14.803Z,82.71
2019-03-12T07:39:14.795Z,82.43
2019-03-12T07:40:14.771Z,81.95
2019-03-12T07:41:25.094Z,82.14
2019-03-12T07:42:14.751Z,82.05
2019-03-12T07:43:14.714Z,81.95
2019-03-12T07:44:14.689Z,81.57
2019-03-12T07:45:14.669Z,81.86
2019-03-12T07:46:14.650Z,81.90
2019-03-12T07:47:14.627Z,81.81
2019-03-12T07:48:14.612Z,82.09
2019-03-12T07:49:14.588Z,82.09
2019-03-12T07:50:14.574Z,81.81
2019-03-12T07:51:14.551Z,81.43
2019-03-12T07:52:14.534Z,81.14
2019-03-12T07:53:14.513Z,80.95
2019-03-12T07:54:14.493Z,80.57
2019-03-12T07:55:14.475Z,80.67
2019-03-12T07:56:14.479Z,80.62
2019-03-12T07:57:14.436Z,80.80
2019-03-12T07:58:14.419Z,80.62
2019-03-12T07:59:14.401Z,80.14
2019-03-12T08:00:14.380Z,80.14
2019-03-12T08:01:14.359Z,80.43
2019-03-12T08:02:14.349Z,80.33
2019-03-12T08:03:14.323Z,79.95
2019-03-12T08:04:14.306Z,79.85
2019-03-12T08:05:14.286Z,80.24
2019-03-12T08:06:14.268Z,79.99
2019-03-12T08:07:14.246Z,80.18
2019-03-12T08:08:14.225Z,79.52
2019-03-12T08:09:14.239Z,79.61
2019-03-12T08:10:14.196Z,78.95
2019-03-12T08:11:14.174Z,79.23
2019-03-12T08:12:14.153Z,79.04
2019-03-12T08:13:14.133Z,78.38
2019-03-12T08:14:14.227Z,78.47
2019-03-12T08:15:22.918Z,78.19
2019-03-12T08:16:14.082Z,77.71
2019-03-12T08:17:14.066Z,77.71
2019-03-12T08:18:14.048Z,77.52
2019-03-12T08:19:14.035Z,78.09
2019-03-12T08:20:14.033Z,78.00
2019-03-12T08:21:22.293Z,77.84
2019-03-12T08:22:14.047Z,77.56
2019-03-12T08:23:13.958Z,78.42
2019-03-12T08:24:14.016Z,78.13
2019-03-12T08:25:13.923Z,77.56
2019-03-12T08:26:13.904Z,77.75
2019-03-12T08:27:13.880Z,77.47
2019-03-12T08:28:13.865Z,77.94
2019-03-12T08:29:13.850Z,77.28
2019-03-12T08:30:13.834Z,76.80
2019-03-12T08:31:13.817Z,76.65
2019-03-12T08:32:13.800Z,76.46
2019-03-12T08:33:13.780Z,75.79
2019-03-12T08:34:13.761Z,75.60
2019-03-12T08:35:13.743Z,75.42
2019-03-12T08:36:13.727Z,75.42
2019-03-12T08:37:13.709Z,75.04
2019-03-12T08:38:13.692Z,75.42
2019-03-12T08:39:13.672Z,75.17
2019-03-12T08:40:13.673Z,74.41
2019-03-12T08:41:13.659Z,74.22
2019-03-12T08:42:13.627Z,74.69
2019-03-12T08:43:13.610Z,74.12
2019-03-12T08:44:13.586Z,73.93
2019-03-12T08:45:15.381Z,74.22
2019-03-12T08:46:13.556Z,73.65
2019-03-12T08:47:13.534Z,73.02
2019-03-12T08:48:13.520Z,73.30
2019-03-12T08:49:13.507Z,72.64
2019-03-12T08:50:13.486Z,72.35
2019-03-12T08:51:13.470Z,72.07
2019-03-12T08:52:13.454Z,72.26
2019-03-12T08:53:13.436Z,72.07
2019-03-12T08:54:13.421Z,71.53
2019-03-12T08:55:13.403Z,71.82
2019-03-12T08:56:13.388Z,71.34
2019-03-12T08:57:13.373Z,70.49
2019-03-12T08:58:13.353Z,69.44
2019-03-12T08:59:13.343Z,68.68
2019-03-12T09:00:13.321Z,68.21
2019-03-12T09:01:13.302Z,67.07
2019-03-12T09:02:13.288Z,66.68
2019-03-12T09:03:13.268Z,67.25
2019-03-12T09:04:13.252Z,67.07
2019-03-12T09:05:13.253Z,67.44
2019-03-12T09:06:13.218Z,66.97
2019-03-12T09:07:13.203Z,67.38
2019-03-12T09:08:13.187Z,67.29
2019-03-12T09:09:13.173Z,67.19
2019-03-12T09:10:13.156Z,67.00
2019-03-12T09:11:13.139Z,66.53
2019-03-12T09:12:13.122Z,66.05
2019-03-12T09:13:13.122Z,65.95
2019-03-12T09:14:13.098Z,65.32
2019-03-12T09:15:13.074Z,65.42
2019-03-12T09:16:13.059Z,65.80
2019-03-12T09:17:13.044Z,65.03
2019-03-12T09:18:13.028Z,65.13
2019-03-12T09:19:13.060Z,64.47
2019-03-12T09:20:12.993Z,62.88
2019-03-12T09:21:12.980Z,62.27
2019-03-12T09:22:12.971Z,61.99
2019-03-12T09:23:12.949Z,61.70
2019-03-12T09:24:12.928Z,62.21
2019-03-12T09:25:12.917Z,62.21
2019-03-12T09:26:12.912Z,62.21
2019-03-12T09:27:12.884Z,62.40
2019-03-12T09:28:12.871Z,61.73
2019-03-12T09:29:12.856Z,61.25
2019-03-12T09:30:12.837Z,60.78
2019-03-12T09:31:12.824Z,60.81
2019-03-12T09:32:12.817Z,60.14
2019-03-12T09:33:12.791Z,59.76
2019-03-12T09:34:12.777Z,58.40
2019-03-12T09:35:12.759Z,58.02
2019-03-12T09:36:12.750Z,58.59
2019-03-12T09:37:12.738Z,59.26
2019-03-12T09:38:12.717Z,59.06
2019-03-12T09:39:12.701Z,59.45
2019-03-12T09:40:12.682Z,58.87
2019-03-12T09:41:12.678Z,59.06
2019-03-12T09:42:12.653Z,58.69
2019-03-12T09:43:12.637Z,58.21
2019-03-12T09:44:12.622Z,58.40
2019-03-12T09:45:12.605Z,58.87
2019-03-12T09:46:12.591Z,58.97
2019-03-12T09:47:12.578Z,58.78
2019-03-12T09:48:12.560Z,57.54
2019-03-12T09:49:12.543Z,57.38
2019-03-12T09:50:12.532Z,57.28
2019-03-12T09:51:12.519Z,57.19
2019-03-12T09:52:12.509Z,57.09
2019-03-12T09:53:12.481Z,56.24
2019-03-12T09:54:12.466Z,55.00
2019-03-12T09:55:12.452Z,54.80
2019-03-12T09:56:12.437Z,54.71
2019-03-12T09:58:51.853Z,55.07
2019-03-12T09:59:51.826Z,55.63
2019-03-12T10:01:59.264Z,55.92
2019-03-12T10:02:56.256Z,55.26
2019-03-12T10:05:01.674Z,54.68
2019-03-12T10:06:01.641Z,55.54
2019-03-12T10:08:07.072Z,55.44
2019-03-12T10:09:07.044Z,55.73
2019-03-12T10:11:11.481Z,55.00
2019-03-12T10:12:11.459Z,54.90
2019-03-12T10:14:15.868Z,55.50
2019-03-12T10:15:15.872Z,55.60
2019-03-12T10:17:20.282Z,53.69
2019-03-12T10:18:20.268Z,53.41
2019-03-12T10:20:24.695Z,53.56
2019-03-12T10:21:24.687Z,54.33
2019-03-12T10:23:29.086Z,54.68
2019-03-12T10:24:29.106Z,55.63
2019-03-12T10:26:33.555Z,54.88
2019-03-12T10:27:33.486Z,54.68
2019-03-12T10:29:37.941Z,54.08
2019-03-12T10:30:37.912Z,54.08
2019-03-12T10:31:37.903Z,54.56
2019-03-12T10:32:37.885Z,54.66
2019-03-12T10:33:37.865Z,54.53
2019-03-12T10:34:37.848Z,54.72
2019-03-12T10:35:37.838Z,55.10
2019-03-12T10:36:37.818Z,55.20
2019-03-12T10:37:37.800Z,55.10
2019-03-12T10:38:37.787Z,54.72
2019-03-12T10:39:37.786Z,55.01
2019-03-12T10:40:37.752Z,55.58
2019-03-12T10:41:37.743Z,55.39
2019-03-12T10:42:37.802Z,55.87
2019-03-12T10:43:37.750Z,56.24
2019-03-12T10:44:37.684Z,55.68
2019-03-12T10:45:37.674Z,55.49
2019-03-12T10:46:37.661Z,55.39
2019-03-12T10:47:37.640Z,55.58
2019-03-12T10:48:37.622Z,55.49
2019-03-12T10:49:37.944Z,55.20
2019-03-12T10:50:37.590Z,55.77
2019-03-12T10:51:37.576Z,55.87
2019-03-12T10:52:37.555Z,56.05
2019-03-12T10:53:37.540Z,56.15
2019-03-12T10:54:37.527Z,57.01
2019-03-12T10:55:37.521Z,56.24
2019-03-12T10:56:37.492Z,56.24
2019-03-12T10:57:37.486Z,56.05
2019-03-12T10:58:37.460Z,56.05
2019-03-12T10:59:37.460Z,56.15
2019-03-12T11:00:37.444Z,56.24
2019-03-12T11:01:37.408Z,56.72
2019-03-12T11:02:40.467Z,56.79
2019-03-12T11:03:37.381Z,56.70
2019-03-12T11:04:37.362Z,56.98
2019-03-12T11:05:45.867Z,56.88
2019-03-12T11:06:37.326Z,57.10
2019-03-12T11:07:37.313Z,57.01
2019-03-12T11:08:37.295Z,57.10
2019-03-12T11:09:37.281Z,57.20
2019-03-12T11:10:37.264Z,56.82
2019-03-12T11:11:37.247Z,57.10
2019-03-12T11:12:37.240Z,57.01
2019-03-12T11:13:37.212Z,56.72
2019-03-12T11:14:37.203Z,56.92
2019-03-12T11:15:37.183Z,56.72
2019-03-12T11:16:37.164Z,56.82
2019-03-12T11:17:48.700Z,56.63
2019-03-12T11:18:37.131Z,56.92
2019-03-12T11:19:37.120Z,57.10
2019-03-12T11:20:37.098Z,57.01
2019-03-12T11:21:37.084Z,56.72
2019-03-12T11:22:37.062Z,57.01
2019-03-12T11:23:37.055Z,56.34
2019-03-12T11:24:37.033Z,56.44
2019-03-12T11:25:37.013Z,56.34
2019-03-12T11:26:37.019Z,56.85
2019-03-12T11:27:36.981Z,56.18
2019-03-12T11:28:36.966Z,56.18
2019-03-12T11:29:36.959Z,56.27
2019-03-12T11:30:36.935Z,56.27
2019-03-12T11:31:36.920Z,55.70
2019-03-12T11:32:36.904Z,55.73
2019-03-12T11:33:36.887Z,55.44
2019-03-12T11:34:38.574Z,54.97
2019-03-12T11:35:39.533Z,54.59
2019-03-12T11:36:36.860Z,54.59
2019-03-12T11:37:36.826Z,53.64
2019-03-12T11:38:36.810Z,52.87
2019-03-12T11:39:36.817Z,52.87
2019-03-12T11:40:36.800Z,52.20
2019-03-12T11:41:36.761Z,52.11
2019-03-12T11:42:36.745Z,52.49
2019-03-12T11:43:36.743Z,52.49
2019-03-12T11:44:36.718Z,52.68
2019-03-12T11:45:38.031Z,51.54
2019-03-12T11:46:43.061Z,51.92
2019-03-12T11:47:36.702Z,51.80
2019-03-12T11:48:36.654Z,51.51
2019-03-12T11:49:36.645Z,51.99
2019-03-12T11:50:36.642Z,52.47
2019-03-12T11:51:36.608Z,52.28
2019-03-12T11:52:36.591Z,52.37
2019-03-12T11:53:36.571Z,52.28
2019-03-12T11:54:36.558Z,52.09
2019-03-12T11:55:36.540Z,51.80
2019-03-12T11:56:36.526Z,51.61
2019-03-12T11:57:36.505Z,51.30
2019-03-12T11:58:36.520Z,51.78
2019-03-12T11:59:36.479Z,51.49
2019-03-12T12:00:36.463Z,51.87
2019-03-12T12:01:36.443Z,51.97
2019-03-12T12:02:36.428Z,52.44
2019-03-12T12:03:36.408Z,52.34
2019-03-12T12:04:36.391Z,51.93
2019-03-12T12:05:36.389Z,52.32
2019-03-12T12:06:36.385Z,52.03
2019-03-12T12:07:36.365Z,52.32
2019-03-12T12:08:36.327Z,52.22
2019-03-12T12:09:36.334Z,51.93
2019-03-12T12:10:36.293Z,52.51
2019-03-12T12:11:36.279Z,52.13
2019-03-12T12:12:36.261Z,52.22
2019-03-12T12:13:36.245Z,53.08
2019-03-12T12:14:36.231Z,53.20
2019-03-12T12:15:36.213Z,52.92
2019-03-12T12:16:36.192Z,52.37
2019-03-12T12:17:36.179Z,51.89
2019-03-12T12:18:36.176Z,51.80
2019-03-12T12:19:36.148Z,50.56
2019-03-12T12:20:36.130Z,49.90
2019-03-12T12:21:36.116Z,50.09
2019-03-12T12:22:36.100Z,49.51
2019-03-12T12:23:36.086Z,50.18
2019-03-12T12:24:36.066Z,50.63
2019-03-12T12:25:36.054Z,51.10
2019-03-12T12:26:36.027Z,51.10
2019-03-12T12:27:36.019Z,50.73
2019-03-12T12:28:35.998Z,51.58
2019-03-12T12:29:35.984Z,51.39
2019-03-12T12:30:35.962Z,51.78
2019-03-12T12:31:35.950Z,51.39
2019-03-12T12:32:35.933Z,50.73
2019-03-12T12:33:35.917Z,50.54
2019-03-12T12:34:35.902Z,50.25
2019-03-12T12:35:35.885Z,50.82
2019-03-12T12:36:35.868Z,51.10
2019-03-12T12:37:35.863Z,51.01
2019-03-12T12:38:35.836Z,50.73
2019-03-12T12:39:35.817Z,51.01
2019-03-12T12:40:35.806Z,50.92
2019-03-12T12:41:35.784Z,50.35
2019-03-12T12:42:36.240Z,50.15
2019-03-12T12:43:35.752Z,49.87
2019-03-12T12:44:35.736Z,49.77
2019-03-12T12:45:35.722Z,49.20
2019-03-12T12:46:35.697Z,48.94
2019-03-12T12:47:35.687Z,49.13
2019-03-12T12:48:35.672Z,48.56
2019-03-12T12:49:35.668Z,48.18
2019-03-12T12:50:35.638Z,47.80
2019-03-12T12:51:35.623Z,47.32
2019-03-12T12:52:35.607Z,47.13
2019-03-12T12:53:35.589Z,46.75
2019-03-12T12:54:35.577Z,47.32
2019-03-12T12:55:35.574Z,47.20
2019-03-12T12:56:35.544Z,47.58
2019-03-12T12:57:35.524Z,48.06
2019-03-12T12:58:35.508Z,48.54
2019-03-12T12:59:35.494Z,48.73
2019-03-12T13:00:38.043Z,48.73
2019-03-12T13:01:35.458Z,48.92
2019-03-12T13:02:35.441Z,49.01
2019-03-12T13:03:35.429Z,49.11
2019-03-12T13:04:35.408Z,49.11